Create Custom Reports and Graphics: Custom Report

AM-Scott Top 8120'

Current Conditions

5/20/24 8:15 PM (-07:00)
Updated Every 15 Minutes
Temp 40.3 °F   1.2
RH 45 %   37
Wet Bulb 32.3 °F   6.8
Dew Pt 20.9 °F   15.8
Wind Spd 6.9 mph   7.1
Wind Dir SE | 125 °
Wind Gust 15.3 mph   6.0
Daily Min Temp 32.3 °F   8.8
Daily Max Temp 50.4 °F   0.6

Last 6 Hours

AM-Scott Top 8120'

15 Minute Data | America/Los_Angeles
as of 5/20/24 8:25 PM PDT
Date & Time Temp (°F) RH (%) Dew Pt (°F) Wet Bulb (°F) Wind Dir (°) Wind Spd (mph) Wind Gust (mph) WindChill (°F) Daily Min Temp (°F) Daily Max Temp (°F)
5/20/24 - 2015 40.3 45 20.9 32.3 SE | 125 6.9 15.3 36.0 32.3 50.4
5/20/24 - 2000 40.9 46 22.0 32.9 SE | 126 7.8 16.6 33.8 32.3 50.4
5/20/24 - 1945 41.1 49 23.2 33.4 ESE | 122 10.5 17.4 35.3 32.3 50.4
5/20/24 - 1930 41.3 51 24.3 33.9 ESE | 120 8.1 14.5 34.2 32.3 50.4
5/20/24 - 1915 41.7 51 24.8 34.3 ESE | 120 9.9 15.8 37.3 32.3 50.4
5/20/24 - 1900 42.1 51 25.4 34.7 ESE | 118 7.3 13.8 35.7 32.3 50.4
5/20/24 - 1845 42.4 52 26.0 35.1 ESE | 118 6.5 11.5 38.2 32.3 50.4
5/20/24 - 1830 44.6 59 31.2 38.1 E | 85 3.3 7.5 42.0 32.3 50.4
5/20/24 - 1815 44.1 64 32.5 38.4 NNW | 348 5.0 11.2 44.1 32.3 50.4
5/20/24 - 1800 44.5 61 32.0 38.4 NNW | 344 9.2 13.7 40.8 32.3 50.4
5/20/24 - 1745 46.3 59 32.6 39.5 NNW | 328 9.9 16.6 41.5 32.3 50.4
5/20/24 - 1730 45.5 59 32.1 38.9 NNW | 348 10.4 17.5 40.3 32.3 50.4
5/20/24 - 1715 45.4 59 31.7 38.7 NW | 322 11.6 19.2 42.5 32.3 50.4
5/20/24 - 1700 44.9 60 31.7 38.3 NW | 319 10.8 16.1 39.3 32.3 50.4
5/20/24 - 1645 44.4 59 31.1 37.9 NW | 315 12.4 19.9 38.5 32.3 50.4
5/20/24 - 1630 44.9 58 31.2 38.3 NW | 317 11.9 18.1 40.2 32.3 50.4
5/20/24 - 1615 44.5 60 31.3 38.1 NW | 312 12.0 18.1 38.8 32.3 50.4
5/20/24 - 1600 44.1 61 31.6 38.0 NW | 312 12.7 22.0 37.5 32.3 50.4
5/20/24 - 1545 44.8 60 31.7 38.4 NNW | 336 12.3 20.5 39.3 32.3 50.4
5/20/24 - 1530 45.9 61 33.1 39.5 NNW | 341 7.7 15.6 44.2 32.3 50.4
5/20/24 - 1515 44.7 61 32.3 38.6 NNW | 345 8.6 16.2 41.9 32.3 50.4
5/20/24 - 1500 46.2 58 32.3 39.3 NW | 322 9.2 15.3 42.1 32.3 50.4
5/20/24 - 1445 45.2 59 31.7 38.6 NNW | 332 8.9 16.7 39.0 32.3 50.4
5/20/24 - 1430 46.9 59 33.5 40.2 NNW | 329 9.3 15.0 45.3 32.3 50.4
Max 46.9 64 33.5 40.2 - 12.7 22.0 45.3 32.3 50.4
Avg 44.0 57 29.6 37.2 - 9.3 16.0 39.5 - -
Min 40.3 45 20.9 32.3 - 3.3 7.5 33.8 32.3 50.4

Last 30 Days

AM-Scott Top 8120'

Daily Data | America/Los_Angeles
as of 5/20/24 8:25 PM PDT
Date Daily Max Temp (°F) Time of Max Temp Daily Min Temp (°F) Time of Min Temp Wind Spd (mph) Wind Gust (mph) Wind Gst Dir (°) Wind Gst Time Wet Bulb (°F) WetB Hrs <28F (hrs) Max RH (%) Min RH (%) MinBV Day (V)
5/19/24 49.9 1450 39.0 2219 14.6 34.6 WNW | 288 1318 39.8 0.0 91 26 11.1
5/18/24 59.6 1317 44.6 2152 8.7 30.0 NW | 318 2353 44.7 0.0 92 31 11.1
5/17/24 62.1 1521 47.9 0638 6.4 17.1 NNE | 12 0255 43.9 0.0 71 28 11.1
5/16/24 62.4 1305 50.8 0304 6.9 22.7 NW | 323 1740 43.0 0.0 68 27 11.1
5/15/24 66.5 1634 47.5 0603 4.9 17.8 SE | 144 0054 42.1 0.0 53 24 11.0
5/14/24 67.0 1716 52.1 2355 5.6 17.3 ESE | 106 2102 46.3 0.0 54 26 11.1
5/13/24 62.5 1252 46.7 0521 3.5 17.8 N | 10 1626 43.1 0.0 72 36 11.1
5/12/24 60.1 1150 47.0 0422 4.2 18.4 NNW | 338 1842 42.3 0.0 67 31 11.1
5/11/24 61.7 1743 42.1 0540 3.7 15.3 SE | 136 0005 39.6 0.0 59 28 11.1
5/10/24 54.2 1628 37.1 0624 6.1 25.9 SSW | 198 0932 36.4 0.0 76 29 11.1
5/9/24 50.2 1641 28.1 0559 7.5 27.8 S | 188 0430 32.5 7.0 85 39 11.1
5/8/24 40.2 1723 24.6 0557 9.8 30.2 SSE | 168 1013 26.8 15.4 75 39 11.1
5/7/24 50.6 1555 29.4 2351 8.8 21.7 ESE | 116 1923 31.5 3.0 63 30 11.1
4/21/24 56.9 1701 46.0 0226 6.9 23.5 NW | 322 1410 37.5 0.0 60 14 11.1
4/20/24 53.5 1633 40.9 0715 6.6 21.7 WNW | 298 1401 37.5 0.0 81 19 11.1
Max 67.0 - 52.1 - 14.6 34.6 - - 46.3 15.4 92 39 11.1
Avg - - - - 6.9 22.8 - - 39.1 - - - -
Min 40.2 - 24.6 - 3.5 15.3 - - 26.8 0.0 53 14 11.0
Calm: 0.0%
Calm: 0.0%